createdAt,value
2023-08-19T00:02:00.643Z,43.13
2023-08-19T00:04:27.661Z,40.50
2023-08-19T00:06:55.865Z,53.78
2023-08-19T00:09:22.822Z,45.95
2023-08-19T00:11:49.769Z,46.78
2023-08-19T00:14:16.778Z,46.50
2023-08-19T00:16:44.870Z,43.65
2023-08-19T00:19:12.675Z,39.70
2023-08-19T00:21:39.702Z,51.75
2023-08-19T00:24:08.028Z,47.53
2023-08-19T00:26:35.073Z,48.63
2023-08-19T00:29:01.919Z,46.38
2023-08-19T00:31:28.815Z,43.17
2023-08-19T00:33:55.697Z,42.00
2023-08-19T00:36:22.975Z,48.08
2023-08-19T00:38:52.831Z,46.30
2023-08-19T00:41:22.426Z,45.60
2023-08-19T00:43:49.408Z,47.97
2023-08-19T00:46:16.290Z,45.15
2023-08-19T00:48:43.141Z,45.25
2023-08-19T00:51:09.999Z,43.45
2023-08-19T00:53:36.878Z,56.72
2023-08-19T00:56:04.790Z,41.97
2023-08-19T00:58:33.092Z,41.28
2023-08-19T01:01:00.084Z,41.38
2023-08-19T01:03:27.007Z,37.03
2023-08-19T01:06:05.262Z,41.65
2023-08-19T01:08:39.265Z,40.38
2023-08-19T01:11:14.752Z,38.05
2023-08-19T01:13:51.696Z,39.60
2023-08-19T01:16:23.990Z,41.55
2023-08-19T01:18:52.002Z,48.97
2023-08-19T01:21:19.301Z,35.85
2023-08-19T01:23:48.976Z,58.60
2023-08-19T01:26:18.036Z,34.72
2023-08-19T01:28:45.022Z,46.30
2023-08-19T01:31:11.957Z,50.55
2023-08-19T01:33:39.017Z,35.78
2023-08-19T01:36:15.095Z,40.35
2023-08-19T01:38:48.046Z,29.55
2023-08-19T01:41:20.383Z,32.38
2023-08-19T01:43:47.730Z,31.50
2023-08-19T01:46:14.715Z,33.92
2023-08-19T01:48:41.792Z,28.95
2023-08-19T01:51:08.627Z,30.40
2023-08-19T01:53:35.484Z,27.92
2023-08-19T01:56:02.324Z,25.83
2023-08-19T01:58:30.539Z,30.10
2023-08-19T02:00:57.421Z,27.85
2023-08-19T02:03:24.292Z,28.33
2023-08-19T02:05:51.166Z,37.53
2023-08-19T02:08:17.993Z,23.67
2023-08-19T02:10:44.979Z,40.50
2023-08-19T02:13:11.922Z,31.88
2023-08-19T02:15:40.285Z,25.42
2023-08-19T02:18:07.532Z,24.00
2023-08-19T02:20:34.630Z,29.35
2023-08-19T02:23:02.083Z,22.83
2023-08-19T02:25:29.171Z,26.48
2023-08-19T02:27:56.092Z,21.55
2023-08-19T02:30:23.110Z,25.63
2023-08-19T02:32:51.405Z,33.03
2023-08-19T02:35:19.241Z,27.90
2023-08-19T02:37:46.295Z,27.88
2023-08-19T02:40:13.250Z,24.27
2023-08-19T02:42:40.327Z,21.73
2023-08-19T02:45:08.336Z,23.73
2023-08-19T02:47:35.301Z,25.48
2023-08-19T02:50:03.936Z,25.10
2023-08-19T02:52:30.796Z,22.45
2023-08-19T02:54:57.684Z,19.25
2023-08-19T02:57:24.480Z,26.10
2023-08-19T02:59:51.349Z,22.30
2023-08-19T03:02:18.321Z,21.15
2023-08-19T03:04:45.259Z,21.75
2023-08-19T03:07:13.563Z,25.45
2023-08-19T03:09:44.163Z,27.17
2023-08-19T03:12:11.049Z,23.58
2023-08-19T03:14:37.944Z,20.73
2023-08-19T03:17:05.216Z,22.90
2023-08-19T03:19:32.101Z,18.85
2023-08-19T03:21:58.934Z,23.27
2023-08-19T03:24:28.305Z,18.67
2023-08-19T03:26:55.230Z,20.58
2023-08-19T03:29:22.174Z,18.20
2023-08-19T03:31:49.051Z,24.75
2023-08-19T03:34:15.905Z,16.25
2023-08-19T03:36:42.924Z,16.92
2023-08-19T03:39:09.903Z,21.33
2023-08-19T03:41:38.136Z,19.15
2023-08-19T03:44:05.706Z,23.45
2023-08-19T03:46:32.676Z,16.02
2023-08-19T03:48:59.541Z,19.83
2023-08-19T03:51:27.463Z,19.52
2023-08-19T03:53:54.339Z,15.85
2023-08-19T03:56:21.247Z,17.20
2023-08-19T03:58:49.832Z,14.75
2023-08-19T04:01:16.872Z,20.05
2023-08-19T04:03:44.509Z,24.42
2023-08-19T04:06:12.319Z,25.98
2023-08-19T04:08:39.348Z,17.17
2023-08-19T04:11:07.664Z,18.33
2023-08-19T04:13:34.910Z,20.90
2023-08-19T04:16:05.101Z,16.60
2023-08-19T04:18:32.169Z,18.00
2023-08-19T04:21:03.139Z,16.60
2023-08-19T04:23:29.954Z,13.48
2023-08-19T04:25:56.905Z,20.40
2023-08-19T04:28:23.860Z,15.38
2023-08-19T04:30:50.780Z,19.20
2023-08-19T04:33:19.374Z,19.95
2023-08-19T04:35:47.572Z,12.35
2023-08-19T04:38:16.296Z,17.23
2023-08-19T04:40:43.641Z,15.18
2023-08-19T04:43:12.414Z,21.48
2023-08-19T04:45:40.633Z,15.55
2023-08-19T04:48:08.098Z,16.35
2023-08-19T04:50:36.629Z,27.52
2023-08-19T04:53:05.151Z,26.10
2023-08-19T04:55:34.592Z,19.63
2023-08-19T04:58:01.470Z,17.60
2023-08-19T05:00:28.478Z,16.42
2023-08-19T05:02:55.399Z,23.23
2023-08-19T05:05:22.428Z,15.73
2023-08-19T05:07:50.838Z,20.33
2023-08-19T05:10:17.977Z,19.23
2023-08-19T05:12:45.001Z,20.90
2023-08-19T05:15:13.473Z,16.15
2023-08-19T05:17:40.479Z,18.98
2023-08-19T05:20:08.648Z,17.55
2023-08-19T05:22:35.727Z,17.48
2023-08-19T05:25:06.588Z,13.77
2023-08-19T05:27:33.736Z,14.05
2023-08-19T05:30:00.976Z,16.25
2023-08-19T05:32:28.312Z,15.70
2023-08-19T05:34:55.422Z,15.18
2023-08-19T05:37:22.804Z,15.82
2023-08-19T05:39:50.784Z,19.25
2023-08-19T05:42:19.420Z,17.83
2023-08-19T05:44:46.332Z,15.90
2023-08-19T05:47:13.713Z,18.20
2023-08-19T05:49:40.627Z,16.42
2023-08-19T05:52:07.711Z,20.85
2023-08-19T05:54:34.774Z,19.77
2023-08-19T05:57:01.723Z,17.65
2023-08-19T05:59:29.923Z,20.48
2023-08-19T06:01:56.839Z,18.63
2023-08-19T06:04:23.787Z,23.90
2023-08-19T06:06:52.627Z,20.90
2023-08-19T06:09:21.466Z,20.33
2023-08-19T06:11:49.810Z,17.50
2023-08-19T06:14:16.847Z,17.10
2023-08-19T06:16:47.289Z,16.35
2023-08-19T06:19:14.976Z,21.98
2023-08-19T06:21:41.775Z,21.50
2023-08-19T06:24:09.220Z,15.50
2023-08-19T06:26:36.055Z,13.85
2023-08-19T06:29:03.387Z,14.80
2023-08-19T06:31:31.022Z,14.15
2023-08-19T06:33:59.956Z,17.23
2023-08-19T06:36:29.855Z,15.05
2023-08-19T06:39:04.819Z,15.82
2023-08-19T06:41:35.537Z,11.23
2023-08-19T06:44:04.875Z,21.02
2023-08-19T06:46:32.867Z,13.00
2023-08-19T06:49:01.708Z,11.55
2023-08-19T06:51:30.254Z,9.98
2023-08-19T06:53:57.618Z,12.82
2023-08-19T06:56:29.415Z,10.20
2023-08-19T06:59:03.394Z,18.92
2023-08-19T07:01:32.217Z,8.52
2023-08-19T07:04:01.244Z,10.18
2023-08-19T07:06:32.376Z,9.98
2023-08-19T07:09:00.613Z,13.00
2023-08-19T07:11:28.899Z,12.90
2023-08-19T07:13:56.441Z,12.48
2023-08-19T07:16:26.532Z,10.65
2023-08-19T07:18:57.724Z,11.23
2023-08-19T07:21:26.239Z,10.23
2023-08-19T07:23:58.484Z,11.18
2023-08-19T07:26:26.686Z,12.45
2023-08-19T07:28:53.956Z,14.07
2023-08-19T07:31:22.173Z,10.48
2023-08-19T07:33:48.950Z,10.65
2023-08-19T07:36:15.868Z,10.98
2023-08-19T07:38:44.276Z,14.80
2023-08-19T07:41:11.439Z,11.05
2023-08-19T07:43:38.417Z,11.43
2023-08-19T07:46:05.404Z,9.50
2023-08-19T07:48:33.058Z,10.75
2023-08-19T07:50:59.940Z,10.77
2023-08-19T07:53:26.916Z,10.80
2023-08-19T07:55:55.147Z,7.15
2023-08-19T07:58:22.006Z,8.27
2023-08-19T08:00:49.073Z,12.13
2023-08-19T08:03:15.988Z,10.43
2023-08-19T08:05:43.005Z,14.73
2023-08-19T08:08:09.841Z,8.30
2023-08-19T08:10:36.695Z,8.35
2023-08-19T08:13:05.202Z,35.78
2023-08-19T08:15:32.320Z,9.32
2023-08-19T08:17:59.499Z,7.40
2023-08-19T08:20:26.379Z,9.95
2023-08-19T08:22:53.347Z,16.85
2023-08-19T08:25:20.385Z,10.10
2023-08-19T08:27:47.250Z,9.60
2023-08-19T08:30:15.493Z,6.72
2023-08-19T08:32:42.477Z,5.75
2023-08-19T08:35:09.542Z,7.47
2023-08-19T08:37:36.587Z,6.53
2023-08-19T08:40:04.770Z,6.70
2023-08-19T08:42:32.556Z,5.43
2023-08-19T08:44:59.872Z,8.98
2023-08-19T08:47:28.599Z,5.78
2023-08-19T08:49:56.918Z,9.20
2023-08-19T08:52:25.437Z,10.93
2023-08-19T08:54:53.313Z,9.57
2023-08-19T08:57:21.077Z,11.50
2023-08-19T08:59:47.982Z,8.40
2023-08-19T09:02:16.672Z,7.57
2023-08-19T09:04:46.624Z,6.20
2023-08-19T09:07:18.266Z,10.38
2023-08-19T09:09:47.045Z,5.10
2023-08-19T09:12:14.527Z,8.70
2023-08-19T09:14:43.918Z,4.00
2023-08-19T09:17:13.303Z,6.25
2023-08-19T09:19:40.587Z,5.15
2023-08-19T09:22:20.378Z,4.43
2023-08-19T09:24:47.477Z,8.68
2023-08-19T09:27:18.203Z,9.63
2023-08-19T09:29:50.635Z,22.23
2023-08-19T09:32:17.725Z,7.60
2023-08-19T09:34:44.633Z,11.27
2023-08-19T09:37:13.652Z,19.27
2023-08-19T09:39:40.541Z,10.60
2023-08-19T09:42:09.782Z,5.13
2023-08-19T09:44:41.499Z,5.65
2023-08-19T09:47:08.559Z,5.30
2023-08-19T09:49:38.236Z,6.47
2023-08-19T09:52:05.839Z,15.48
2023-08-19T09:54:34.187Z,7.32
2023-08-19T09:57:01.118Z,8.48
2023-08-19T09:59:28.160Z,5.80
2023-08-19T10:02:01.409Z,5.35
2023-08-19T10:06:57.476Z,6.13
2023-08-19T10:09:27.894Z,5.85
2023-08-19T10:11:57.333Z,12.30
2023-08-19T10:14:30.955Z,5.28
2023-08-19T10:17:03.162Z,6.53
2023-08-19T10:19:35.183Z,16.25
2023-08-19T10:22:04.032Z,8.65
2023-08-19T10:24:31.487Z,7.82
2023-08-19T10:26:59.747Z,5.03
2023-08-19T10:29:26.621Z,5.55
2023-08-19T10:31:53.653Z,5.38
2023-08-19T10:34:26.816Z,11.80
2023-08-19T10:39:32.470Z,11.68
2023-08-19T10:42:00.756Z,37.20
2023-08-19T10:44:32.644Z,3.92
2023-08-19T10:47:09.583Z,10.07
2023-08-19T10:49:37.104Z,12.10
2023-08-19T10:52:07.494Z,13.68
2023-08-19T10:54:36.986Z,4.68
2023-08-19T10:57:10.194Z,9.93
2023-08-19T10:59:38.634Z,8.02
2023-08-19T11:02:06.923Z,5.72
2023-08-19T11:04:34.065Z,7.03
2023-08-19T11:07:01.216Z,7.93
2023-08-19T11:09:28.260Z,8.88
2023-08-19T11:11:56.557Z,5.50
2023-08-19T11:14:25.491Z,8.48
2023-08-19T11:16:54.202Z,6.88
2023-08-19T11:19:21.672Z,9.63
2023-08-19T11:21:48.722Z,11.02
2023-08-19T11:24:15.984Z,6.03
2023-08-19T11:26:44.227Z,7.53
2023-08-19T11:29:11.724Z,3.70
2023-08-19T11:31:41.869Z,5.60
2023-08-19T11:34:09.630Z,7.15
2023-08-19T11:36:37.312Z,11.15
2023-08-19T11:39:05.471Z,8.48
2023-08-19T11:41:33.064Z,4.15
2023-08-19T11:44:00.271Z,5.30
2023-08-19T11:46:29.225Z,5.88
2023-08-19T11:48:59.152Z,6.10
2023-08-19T11:51:26.512Z,3.38
2023-08-19T11:53:57.511Z,4.53
2023-08-19T11:56:25.687Z,5.57
2023-08-19T11:58:54.394Z,6.60
2023-08-19T12:01:22.476Z,6.90
2023-08-19T12:03:51.590Z,7.38
2023-08-19T12:06:19.910Z,7.75
2023-08-19T12:08:51.127Z,5.90
2023-08-19T12:11:26.720Z,3.17
2023-08-19T12:13:53.643Z,6.97
2023-08-19T12:16:21.550Z,6.97
2023-08-19T12:18:48.638Z,13.65
2023-08-19T12:21:15.538Z,5.30
2023-08-19T12:23:43.817Z,4.30
2023-08-19T12:26:10.636Z,6.22
2023-08-19T12:28:37.448Z,5.53
2023-08-19T12:31:04.308Z,4.03
2023-08-19T12:33:31.146Z,4.38
2023-08-19T12:36:12.559Z,9.02
2023-08-19T12:38:46.757Z,6.25
2023-08-19T12:41:13.814Z,6.63
2023-08-19T12:43:40.850Z,5.10
2023-08-19T12:46:07.991Z,4.53
2023-08-19T12:48:35.015Z,8.25
2023-08-19T12:51:02.095Z,4.68
2023-08-19T12:53:28.988Z,5.18
2023-08-19T12:55:57.358Z,9.15
2023-08-19T12:58:24.403Z,5.03
2023-08-19T13:00:51.380Z,8.13
2023-08-19T13:03:18.355Z,40.45
2023-08-19T13:05:45.309Z,3.20
2023-08-19T13:08:12.687Z,7.57
2023-08-19T13:10:39.610Z,8.88
2023-08-19T13:13:08.088Z,6.70
2023-08-19T13:15:35.057Z,6.15
2023-08-19T13:18:01.918Z,5.53
2023-08-19T13:20:28.846Z,3.65
2023-08-19T13:22:55.958Z,5.25
2023-08-19T13:25:23.322Z,7.93
2023-08-19T13:27:50.300Z,4.80
2023-08-19T13:30:18.704Z,5.65
2023-08-19T13:32:45.563Z,3.55
2023-08-19T13:35:12.565Z,22.35
2023-08-19T13:37:39.550Z,4.97
2023-08-19T13:40:08.658Z,10.20
2023-08-19T13:42:35.932Z,5.00
2023-08-19T13:45:05.529Z,7.18
2023-08-19T13:47:34.178Z,7.72
2023-08-19T13:50:01.596Z,4.90
2023-08-19T13:52:40.361Z,4.53
2023-08-19T13:55:08.781Z,22.30
2023-08-19T13:57:36.208Z,4.82
2023-08-19T14:00:11.805Z,4.30
2023-08-19T14:02:42.718Z,8.13
2023-08-19T14:05:12.868Z,7.03
2023-08-19T14:07:40.747Z,10.60
2023-08-19T14:10:08.754Z,6.68
2023-08-19T14:12:35.622Z,6.32
2023-08-19T14:15:02.809Z,8.02
2023-08-19T14:17:29.935Z,6.95
2023-08-19T14:19:58.258Z,4.82
2023-08-19T14:22:25.117Z,16.50
2023-08-19T14:24:52.013Z,6.20
2023-08-19T14:27:18.924Z,5.57
2023-08-19T14:29:45.733Z,9.25
2023-08-19T14:32:12.690Z,2.78
2023-08-19T14:34:39.803Z,26.58
2023-08-19T14:37:08.308Z,5.90
2023-08-19T14:39:35.345Z,4.65
2023-08-19T14:42:02.191Z,10.52
2023-08-19T14:44:31.003Z,4.50
2023-08-19T14:46:58.891Z,5.07
2023-08-19T14:49:26.374Z,5.68
2023-08-19T14:51:53.295Z,5.07
2023-08-19T14:54:21.423Z,28.20
2023-08-19T14:56:48.595Z,3.92
2023-08-19T14:59:15.899Z,3.85
2023-08-19T15:01:42.927Z,3.88
2023-08-19T15:04:10.035Z,3.25
2023-08-19T15:06:36.988Z,4.22
2023-08-19T15:09:07.282Z,2.80
2023-08-19T15:11:41.042Z,8.00
2023-08-19T15:14:09.048Z,3.63
2023-08-19T15:16:36.319Z,4.00
2023-08-19T15:19:05.103Z,4.13
2023-08-19T15:21:32.291Z,10.13
2023-08-19T15:23:59.802Z,7.90
2023-08-19T15:26:26.756Z,8.18
2023-08-19T15:28:55.475Z,4.38
2023-08-19T15:31:23.554Z,3.67
2023-08-19T15:33:50.862Z,6.05
2023-08-19T15:36:19.698Z,7.25
2023-08-19T15:38:47.029Z,4.85
2023-08-19T15:41:13.861Z,11.20
2023-08-19T15:43:40.726Z,6.55
2023-08-19T15:46:09.233Z,3.80
2023-08-19T15:48:36.508Z,6.68
2023-08-19T15:51:03.636Z,5.35
2023-08-19T15:53:30.524Z,5.25
2023-08-19T15:55:57.468Z,4.65
2023-08-19T15:58:24.609Z,3.95
2023-08-19T16:00:51.616Z,11.55
2023-08-19T16:03:19.860Z,5.40
2023-08-19T16:05:46.946Z,3.85
2023-08-19T16:08:13.975Z,6.60
2023-08-19T16:10:40.885Z,6.20
2023-08-19T16:13:08.444Z,5.45
2023-08-19T16:15:35.385Z,4.50
2023-08-19T16:18:02.247Z,5.60
2023-08-19T16:20:30.520Z,5.03
2023-08-19T16:22:57.420Z,3.28
2023-08-19T16:25:24.293Z,18.45
2023-08-19T16:27:53.107Z,4.15
2023-08-19T16:30:20.311Z,3.30
2023-08-19T16:32:47.233Z,5.32
2023-08-19T16:35:15.384Z,10.60
2023-08-19T16:37:43.608Z,8.05
2023-08-19T16:40:10.916Z,5.68
2023-08-19T16:42:37.730Z,7.68
2023-08-19T16:45:05.218Z,9.10
2023-08-19T16:47:32.487Z,10.32
2023-08-19T16:49:59.814Z,11.05
2023-08-19T16:52:28.325Z,10.55
2023-08-19T16:54:56.756Z,17.13
2023-08-19T16:57:23.668Z,8.50
2023-08-19T16:59:50.486Z,10.40
2023-08-19T17:02:17.461Z,15.68
2023-08-19T17:04:45.013Z,14.18
2023-08-19T17:07:11.977Z,16.00
2023-08-19T17:09:41.192Z,34.53
2023-08-19T17:12:09.765Z,24.50
2023-08-19T17:14:37.114Z,12.68
2023-08-19T17:17:04.462Z,11.65
2023-08-19T17:19:31.308Z,10.07
2023-08-19T17:21:58.145Z,8.90
2023-08-19T17:24:25.056Z,16.63
2023-08-19T17:26:52.011Z,11.40
2023-08-19T17:29:20.183Z,12.43
2023-08-19T17:31:47.027Z,12.13
2023-08-19T17:34:13.854Z,8.27
2023-08-19T17:36:40.730Z,13.52
2023-08-19T17:39:09.579Z,16.40
2023-08-19T17:41:36.434Z,7.75
2023-08-19T17:44:03.722Z,18.52
2023-08-19T17:46:31.982Z,16.20
2023-08-19T17:48:58.901Z,13.77
2023-08-19T17:51:25.718Z,12.32
2023-08-19T17:53:52.550Z,27.00
2023-08-19T17:56:19.416Z,15.05
2023-08-19T17:58:46.328Z,24.05
2023-08-19T18:01:13.670Z,8.38
2023-08-19T18:03:42.473Z,29.00
2023-08-19T18:06:09.420Z,10.80
2023-08-19T18:08:36.477Z,10.85
2023-08-19T18:11:04.063Z,10.75
2023-08-19T18:13:31.017Z,15.45
2023-08-19T18:15:57.888Z,25.65
2023-08-19T18:18:24.662Z,8.55
2023-08-19T18:20:55.423Z,10.32
2023-08-19T18:23:22.902Z,10.88
2023-08-19T18:25:49.879Z,10.52
2023-08-19T18:28:16.936Z,13.00
2023-08-19T18:30:43.774Z,7.30
2023-08-19T18:33:10.641Z,9.70
2023-08-19T18:35:37.459Z,17.48
2023-08-19T18:38:06.014Z,7.32
2023-08-19T18:40:34.433Z,12.07
2023-08-19T18:43:01.267Z,10.25
2023-08-19T18:45:28.239Z,9.77
2023-08-19T18:48:04.465Z,8.23
2023-08-19T18:50:31.715Z,11.02
2023-08-19T18:52:58.678Z,13.63
2023-08-19T18:55:27.798Z,13.95
2023-08-19T18:57:54.694Z,10.02
2023-08-19T19:00:22.068Z,10.48
2023-08-19T19:02:51.776Z,14.93
2023-08-19T19:05:19.033Z,53.38
2023-08-19T19:07:46.194Z,9.48
2023-08-19T19:10:13.192Z,12.68
2023-08-19T19:12:41.449Z,16.85
2023-08-19T19:15:10.734Z,12.82
2023-08-19T19:17:55.156Z,13.95
2023-08-19T19:20:23.221Z,13.35
2023-08-19T19:22:50.768Z,14.45
2023-08-19T19:25:20.560Z,12.40
2023-08-19T19:27:49.643Z,20.73
2023-08-19T19:30:18.639Z,10.70
2023-08-19T19:32:47.110Z,10.07
2023-08-19T19:35:15.711Z,9.88
2023-08-19T19:37:44.831Z,8.68
2023-08-19T19:40:13.416Z,4.85
2023-08-19T19:42:40.457Z,11.90
2023-08-19T19:45:11.031Z,14.25
2023-08-19T19:47:39.497Z,14.65
2023-08-19T19:50:07.753Z,9.65
2023-08-19T19:52:35.064Z,11.98
2023-08-19T19:55:01.936Z,9.25
2023-08-19T19:57:28.916Z,7.22
2023-08-19T19:59:56.556Z,7.85
2023-08-19T20:02:24.803Z,13.68
2023-08-19T20:04:51.684Z,10.35
2023-08-19T20:07:18.540Z,13.75
2023-08-19T20:09:45.387Z,14.20
2023-08-19T20:12:12.193Z,14.32
2023-08-19T20:14:39.098Z,10.95
2023-08-19T20:17:06.069Z,11.65
2023-08-19T20:19:34.326Z,12.98
2023-08-19T20:22:01.688Z,14.38
2023-08-19T20:24:28.994Z,5.53
2023-08-19T20:26:56.083Z,8.60
2023-08-19T20:29:23.373Z,6.30
2023-08-19T20:31:50.405Z,7.72
2023-08-19T20:34:17.498Z,16.48
2023-08-19T20:36:45.835Z,14.00
2023-08-19T20:39:12.687Z,12.68
2023-08-19T20:41:39.557Z,14.57
2023-08-19T20:44:11.506Z,19.05
2023-08-19T20:46:38.810Z,16.13
2023-08-19T20:49:07.311Z,6.53
2023-08-19T20:51:34.324Z,17.23
2023-08-19T20:54:03.760Z,12.88
2023-08-19T20:56:31.070Z,11.60
2023-08-19T20:58:58.518Z,8.38
2023-08-19T21:01:26.130Z,10.65
2023-08-19T21:03:53.440Z,10.55
2023-08-19T21:06:20.295Z,8.65
2023-08-19T21:08:47.153Z,11.30
2023-08-19T21:11:15.958Z,12.05
2023-08-19T21:13:42.839Z,6.40
2023-08-19T21:16:09.694Z,13.55
2023-08-19T21:18:36.594Z,10.77
2023-08-19T21:21:03.615Z,13.73
2023-08-19T21:23:30.556Z,7.72
2023-08-19T21:25:57.361Z,11.63
2023-08-19T21:28:25.620Z,16.77
2023-08-19T21:30:53.856Z,9.65
2023-08-19T21:33:20.845Z,10.45
2023-08-19T21:35:47.851Z,12.02
2023-08-19T21:38:14.858Z,16.38
2023-08-19T21:40:41.837Z,14.80
2023-08-19T21:43:08.728Z,8.95
2023-08-19T21:45:36.949Z,19.33
2023-08-19T21:48:04.459Z,7.05
2023-08-19T21:50:32.525Z,15.63
2023-08-19T21:52:59.309Z,11.13
2023-08-19T21:55:26.842Z,7.93
2023-08-19T21:57:53.660Z,6.60
2023-08-19T22:00:21.555Z,13.93
2023-08-19T22:02:49.828Z,12.13
2023-08-19T22:05:16.937Z,12.18
2023-08-19T22:07:43.755Z,10.20
2023-08-19T22:10:11.039Z,15.75
2023-08-19T22:12:38.032Z,50.28
2023-08-19T22:15:05.748Z,44.65
2023-08-19T22:17:32.809Z,28.17
2023-08-19T22:20:01.281Z,28.88
2023-08-19T22:22:28.117Z,16.33
2023-08-19T22:24:55.065Z,41.60
2023-08-19T22:27:21.873Z,23.58
2023-08-19T22:29:48.917Z,17.05
2023-08-19T22:32:15.763Z,31.63
2023-08-19T22:34:42.567Z,15.30
2023-08-19T22:37:12.044Z,13.68
2023-08-19T22:39:38.825Z,10.13
2023-08-19T22:42:06.101Z,12.52
2023-08-19T22:44:32.925Z,10.57
2023-08-19T22:46:59.742Z,14.85
2023-08-19T22:49:26.562Z,10.40
2023-08-19T22:51:53.354Z,11.90
2023-08-19T22:54:21.554Z,16.70
2023-08-19T22:56:48.415Z,13.20
2023-08-19T22:59:15.204Z,11.25
2023-08-19T23:01:42.165Z,11.13
2023-08-19T23:04:09.072Z,13.30
2023-08-19T23:06:35.896Z,14.80
2023-08-19T23:09:02.820Z,14.13
2023-08-19T23:11:31.174Z,11.38
2023-08-19T23:13:58.093Z,12.73
2023-08-19T23:16:24.979Z,12.18
2023-08-19T23:18:51.819Z,14.60
2023-08-19T23:21:21.571Z,15.63
2023-08-19T23:23:49.372Z,16.90
2023-08-19T23:26:16.489Z,16.60
2023-08-19T23:28:44.656Z,16.25
2023-08-19T23:31:11.493Z,13.45
2023-08-19T23:33:38.308Z,14.75
2023-08-19T23:36:05.281Z,18.65
2023-08-19T23:38:32.205Z,13.98
2023-08-19T23:40:59.210Z,11.23
2023-08-19T23:43:26.256Z,13.80
2023-08-19T23:45:54.472Z,20.40
2023-08-19T23:48:21.778Z,21.25
2023-08-19T23:50:50.943Z,22.20
2023-08-19T23:53:20.000Z,19.05
2023-08-19T23:55:47.277Z,14.77
2023-08-19T23:58:14.803Z,15.55
